sensor_id;sensor_type;location;lat;lon;timestamp;pressure;altitude;pressure_sealevel;temperature
20103;BMP180;10210;52.284;9.892;2023-07-20T00:01:48;100285.00;;;24.50
20103;BMP180;10210;52.284;9.892;2023-07-20T00:04:14;100287.00;;;24.40
20103;BMP180;10210;52.284;9.892;2023-07-20T00:06:40;100279.00;;;24.40
20103;BMP180;10210;52.284;9.892;2023-07-20T00:09:08;100280.00;;;24.30
20103;BMP180;10210;52.284;9.892;2023-07-20T00:11:37;100282.00;;;24.30
20103;BMP180;10210;52.284;9.892;2023-07-20T00:14:07;100283.00;;;24.20
20103;BMP180;10210;52.284;9.892;2023-07-20T00:16:33;100280.00;;;24.20
20103;BMP180;10210;52.284;9.892;2023-07-20T00:18:58;100267.00;;;24.20
20103;BMP180;10210;52.284;9.892;2023-07-20T00:21:25;100261.00;;;24.10
20103;BMP180;10210;52.284;9.892;2023-07-20T00:23:50;100264.00;;;24.10
20103;BMP180;10210;52.284;9.892;2023-07-20T00:26:16;100252.00;;;24.10
20103;BMP180;10210;52.284;9.892;2023-07-20T00:28:43;100253.00;;;24.10
20103;BMP180;10210;52.284;9.892;2023-07-20T00:31:09;100259.00;;;24.10
20103;BMP180;10210;52.284;9.892;2023-07-20T00:33:34;100255.00;;;24.10
20103;BMP180;10210;52.284;9.892;2023-07-20T00:36:00;100254.00;;;24.10
20103;BMP180;10210;52.284;9.892;2023-07-20T00:38:26;100255.00;;;24.10
20103;BMP180;10210;52.284;9.892;2023-07-20T00:40:51;100261.00;;;24.10
20103;BMP180;10210;52.284;9.892;2023-07-20T00:43:17;100258.00;;;24.00
20103;BMP180;10210;52.284;9.892;2023-07-20T00:45:43;100256.00;;;24.10
20103;BMP180;10210;52.284;9.892;2023-07-20T00:48:10;100257.00;;;24.00
20103;BMP180;10210;52.284;9.892;2023-07-20T00:50:37;100254.00;;;24.00
20103;BMP180;10210;52.284;9.892;2023-07-20T00:53:05;100262.00;;;24.00
20103;BMP180;10210;52.284;9.892;2023-07-20T00:55:31;100253.00;;;24.00
20103;BMP180;10210;52.284;9.892;2023-07-20T00:57:58;100252.00;;;24.00
20103;BMP180;10210;52.284;9.892;2023-07-20T01:00:24;100253.00;;;24.00
20103;BMP180;10210;52.284;9.892;2023-07-20T01:02:51;100255.00;;;23.90
20103;BMP180;10210;52.284;9.892;2023-07-20T01:05:17;100253.00;;;23.90
20103;BMP180;10210;52.284;9.892;2023-07-20T01:07:53;100260.00;;;23.90
20103;BMP180;10210;52.284;9.892;2023-07-20T01:10:46;100269.00;;;23.80
20103;BMP180;10210;52.284;9.892;2023-07-20T01:13:18;100271.00;;;23.80
20103;BMP180;10210;52.284;9.892;2023-07-20T01:16:09;100271.00;;;23.70
20103;BMP180;10210;52.284;9.892;2023-07-20T01:18:35;100261.00;;;23.70
20103;BMP180;10210;52.284;9.892;2023-07-20T01:21:09;100255.00;;;23.70
20103;BMP180;10210;52.284;9.892;2023-07-20T01:30:50;100257.00;;;23.50
20103;BMP180;10210;52.284;9.892;2023-07-20T01:33:19;100268.00;;;23.50
20103;BMP180;10210;52.284;9.892;2023-07-20T01:35:51;100256.00;;;23.40
20103;BMP180;10210;52.284;9.892;2023-07-20T01:38:19;100258.00;;;23.40
20103;BMP180;10210;52.284;9.892;2023-07-20T01:40:46;100266.00;;;23.40
20103;BMP180;10210;52.284;9.892;2023-07-20T01:43:12;100268.00;;;23.40
20103;BMP180;10210;52.284;9.892;2023-07-20T01:45:38;100266.00;;;23.30
20103;BMP180;10210;52.284;9.892;2023-07-20T01:48:05;100272.00;;;23.30
20103;BMP180;10210;52.284;9.892;2023-07-20T01:50:31;100268.00;;;23.30
20103;BMP180;10210;52.284;9.892;2023-07-20T01:52:57;100265.00;;;23.30
20103;BMP180;10210;52.284;9.892;2023-07-20T01:55:22;100261.00;;;23.20
20103;BMP180;10210;52.284;9.892;2023-07-20T01:57:48;100263.00;;;23.20
20103;BMP180;10210;52.284;9.892;2023-07-20T02:00:14;100252.00;;;23.20
20103;BMP180;10210;52.284;9.892;2023-07-20T02:02:41;100250.00;;;23.30
20103;BMP180;10210;52.284;9.892;2023-07-20T02:05:08;100250.00;;;23.30
20103;BMP180;10210;52.284;9.892;2023-07-20T02:07:33;100252.00;;;23.20
20103;BMP180;10210;52.284;9.892;2023-07-20T02:09:59;100257.00;;;23.20
20103;BMP180;10210;52.284;9.892;2023-07-20T02:12:25;100258.00;;;23.20
20103;BMP180;10210;52.284;9.892;2023-07-20T02:14:50;100254.00;;;23.20
20103;BMP180;10210;52.284;9.892;2023-07-20T02:17:16;100263.00;;;23.20
20103;BMP180;10210;52.284;9.892;2023-07-20T02:19:42;100259.00;;;23.20
20103;BMP180;10210;52.284;9.892;2023-07-20T02:22:08;100252.00;;;23.20
20103;BMP180;10210;52.284;9.892;2023-07-20T02:24:34;100255.00;;;23.30
20103;BMP180;10210;52.284;9.892;2023-07-20T02:27:00;100254.00;;;23.30
20103;BMP180;10210;52.284;9.892;2023-07-20T02:29:25;100244.00;;;23.30
20103;BMP180;10210;52.284;9.892;2023-07-20T02:31:51;100257.00;;;23.30
20103;BMP180;10210;52.284;9.892;2023-07-20T02:34:17;100257.00;;;23.30
20103;BMP180;10210;52.284;9.892;2023-07-20T02:36:42;100254.00;;;23.30
20103;BMP180;10210;52.284;9.892;2023-07-20T02:39:08;100261.00;;;23.30
20103;BMP180;10210;52.284;9.892;2023-07-20T02:41:34;100266.00;;;23.30
20103;BMP180;10210;52.284;9.892;2023-07-20T02:44:00;100261.00;;;23.20
20103;BMP180;10210;52.284;9.892;2023-07-20T02:46:27;100271.00;;;23.20
20103;BMP180;10210;52.284;9.892;2023-07-20T02:48:55;100272.00;;;23.20
20103;BMP180;10210;52.284;9.892;2023-07-20T02:51:21;100265.00;;;23.20
20103;BMP180;10210;52.284;9.892;2023-07-20T02:53:46;100268.00;;;23.20
20103;BMP180;10210;52.284;9.892;2023-07-20T02:56:12;100267.00;;;23.20
20103;BMP180;10210;52.284;9.892;2023-07-20T02:58:41;100271.00;;;23.20
20103;BMP180;10210;52.284;9.892;2023-07-20T03:01:09;100265.00;;;23.20
20103;BMP180;10210;52.284;9.892;2023-07-20T03:03:37;100269.00;;;23.20
20103;BMP180;10210;52.284;9.892;2023-07-20T03:06:05;100264.00;;;23.20
20103;BMP180;10210;52.284;9.892;2023-07-20T03:08:31;100268.00;;;23.20
20103;BMP180;10210;52.284;9.892;2023-07-20T03:10:56;100272.00;;;23.20
20103;BMP180;10210;52.284;9.892;2023-07-20T03:13:22;100274.00;;;23.10
20103;BMP180;10210;52.284;9.892;2023-07-20T03:15:49;100275.00;;;23.10
20103;BMP180;10210;52.284;9.892;2023-07-20T03:18:15;100269.00;;;23.10
20103;BMP180;10210;52.284;9.892;2023-07-20T03:20:40;100274.00;;;23.10
20103;BMP180;10210;52.284;9.892;2023-07-20T03:23:06;100276.00;;;23.20
20103;BMP180;10210;52.284;9.892;2023-07-20T03:25:32;100273.00;;;23.20
20103;BMP180;10210;52.284;9.892;2023-07-20T03:27:59;100279.00;;;23.20
20103;BMP180;10210;52.284;9.892;2023-07-20T03:30:24;100261.00;;;23.20
20103;BMP180;10210;52.284;9.892;2023-07-20T03:32:51;100259.00;;;23.20
20103;BMP180;10210;52.284;9.892;2023-07-20T03:35:16;100257.00;;;23.20
20103;BMP180;10210;52.284;9.892;2023-07-20T03:37:42;100259.00;;;23.20
20103;BMP180;10210;52.284;9.892;2023-07-20T03:40:09;100264.00;;;23.20
20103;BMP180;10210;52.284;9.892;2023-07-20T03:42:35;100270.00;;;23.20
20103;BMP180;10210;52.284;9.892;2023-07-20T03:45:01;100266.00;;;23.30
20103;BMP180;10210;52.284;9.892;2023-07-20T03:47:28;100270.00;;;23.30
20103;BMP180;10210;52.284;9.892;2023-07-20T03:49:54;100269.00;;;23.30
20103;BMP180;10210;52.284;9.892;2023-07-20T03:52:19;100271.00;;;23.20
20103;BMP180;10210;52.284;9.892;2023-07-20T03:54:45;100270.00;;;23.20
20103;BMP180;10210;52.284;9.892;2023-07-20T03:57:11;100260.00;;;23.20
20103;BMP180;10210;52.284;9.892;2023-07-20T03:59:45;100267.00;;;23.20
20103;BMP180;10210;52.284;9.892;2023-07-20T04:02:10;100262.00;;;23.20
20103;BMP180;10210;52.284;9.892;2023-07-20T04:04:36;100261.00;;;23.30
20103;BMP180;10210;52.284;9.892;2023-07-20T04:07:02;100258.00;;;23.30
20103;BMP180;10210;52.284;9.892;2023-07-20T04:09:27;100266.00;;;23.30
20103;BMP180;10210;52.284;9.892;2023-07-20T04:11:53;100263.00;;;23.30
20103;BMP180;10210;52.284;9.892;2023-07-20T04:14:19;100276.00;;;23.30
20103;BMP180;10210;52.284;9.892;2023-07-20T04:16:47;100269.00;;;23.30
20103;BMP180;10210;52.284;9.892;2023-07-20T04:19:12;100266.00;;;23.30
20103;BMP180;10210;52.284;9.892;2023-07-20T04:21:41;100273.00;;;23.30
20103;BMP180;10210;52.284;9.892;2023-07-20T04:24:07;100269.00;;;23.30
20103;BMP180;10210;52.284;9.892;2023-07-20T04:26:33;100279.00;;;23.30
20103;BMP180;10210;52.284;9.892;2023-07-20T04:28:59;100276.00;;;23.30
20103;BMP180;10210;52.284;9.892;2023-07-20T04:31:25;100283.00;;;23.20
20103;BMP180;10210;52.284;9.892;2023-07-20T04:33:50;100293.00;;;23.20
20103;BMP180;10210;52.284;9.892;2023-07-20T04:36:16;100300.00;;;23.10
20103;BMP180;10210;52.284;9.892;2023-07-20T04:38:45;100298.00;;;23.00
20103;BMP180;10210;52.284;9.892;2023-07-20T04:41:12;100294.00;;;22.90
20103;BMP180;10210;52.284;9.892;2023-07-20T04:43:44;100294.00;;;22.80
20103;BMP180;10210;52.284;9.892;2023-07-20T04:46:11;100302.00;;;22.70
20103;BMP180;10210;52.284;9.892;2023-07-20T04:48:37;100298.00;;;22.60
20103;BMP180;10210;52.284;9.892;2023-07-20T04:51:03;100300.00;;;22.60
20103;BMP180;10210;52.284;9.892;2023-07-20T04:53:29;100294.00;;;22.50
20103;BMP180;10210;52.284;9.892;2023-07-20T04:55:54;100304.00;;;22.50
20103;BMP180;10210;52.284;9.892;2023-07-20T04:58:22;100304.00;;;22.40
20103;BMP180;10210;52.284;9.892;2023-07-20T05:00:51;100300.00;;;22.40
20103;BMP180;10210;52.284;9.892;2023-07-20T05:03:17;100305.00;;;22.30
20103;BMP180;10210;52.284;9.892;2023-07-20T05:05:43;100302.00;;;22.30
20103;BMP180;10210;52.284;9.892;2023-07-20T05:08:09;100303.00;;;22.20
20103;BMP180;10210;52.284;9.892;2023-07-20T05:10:35;100304.00;;;22.20
20103;BMP180;10210;52.284;9.892;2023-07-20T05:13:01;100305.00;;;22.20
20103;BMP180;10210;52.284;9.892;2023-07-20T05:15:26;100305.00;;;22.10
20103;BMP180;10210;52.284;9.892;2023-07-20T05:17:52;100308.00;;;22.10
20103;BMP180;10210;52.284;9.892;2023-07-20T05:20:18;100309.00;;;22.10
20103;BMP180;10210;52.284;9.892;2023-07-20T05:22:44;100307.00;;;22.10
20103;BMP180;10210;52.284;9.892;2023-07-20T05:25:11;100302.00;;;22.10
20103;BMP180;10210;52.284;9.892;2023-07-20T05:27:37;100306.00;;;22.00
20103;BMP180;10210;52.284;9.892;2023-07-20T05:30:05;100305.00;;;22.00
20103;BMP180;10210;52.284;9.892;2023-07-20T05:32:31;100303.00;;;22.10
20103;BMP180;10210;52.284;9.892;2023-07-20T05:34:57;100316.00;;;22.10
20103;BMP180;10210;52.284;9.892;2023-07-20T05:37:23;100318.00;;;22.10
20103;BMP180;10210;52.284;9.892;2023-07-20T05:39:48;100315.00;;;22.00
20103;BMP180;10210;52.284;9.892;2023-07-20T05:42:14;100323.00;;;22.00
20103;BMP180;10210;52.284;9.892;2023-07-20T05:44:41;100334.00;;;22.00
20103;BMP180;10210;52.284;9.892;2023-07-20T05:47:07;100331.00;;;22.00
20103;BMP180;10210;52.284;9.892;2023-07-20T05:49:34;100333.00;;;22.00
20103;BMP180;10210;52.284;9.892;2023-07-20T05:52:00;100333.00;;;22.00
20103;BMP180;10210;52.284;9.892;2023-07-20T05:54:27;100319.00;;;22.00
20103;BMP180;10210;52.284;9.892;2023-07-20T05:56:53;100334.00;;;22.00
20103;BMP180;10210;52.284;9.892;2023-07-20T05:59:19;100335.00;;;22.00
20103;BMP180;10210;52.284;9.892;2023-07-20T06:01:49;100337.00;;;22.00
20103;BMP180;10210;52.284;9.892;2023-07-20T06:04:15;100338.00;;;22.00
20103;BMP180;10210;52.284;9.892;2023-07-20T06:06:41;100338.00;;;22.00
20103;BMP180;10210;52.284;9.892;2023-07-20T06:09:07;100338.00;;;22.00
20103;BMP180;10210;52.284;9.892;2023-07-20T06:11:40;100337.00;;;22.00
20103;BMP180;10210;52.284;9.892;2023-07-20T06:14:06;100337.00;;;22.00
20103;BMP180;10210;52.284;9.892;2023-07-20T06:16:31;100343.00;;;22.00
20103;BMP180;10210;52.284;9.892;2023-07-20T06:18:59;100335.00;;;22.00
20103;BMP180;10210;52.284;9.892;2023-07-20T06:21:25;100343.00;;;22.00
20103;BMP180;10210;52.284;9.892;2023-07-20T06:23:50;100336.00;;;22.00
20103;BMP180;10210;52.284;9.892;2023-07-20T06:26:16;100335.00;;;22.00
20103;BMP180;10210;52.284;9.892;2023-07-20T06:28:41;100337.00;;;22.00
20103;BMP180;10210;52.284;9.892;2023-07-20T06:31:07;100336.00;;;22.00
20103;BMP180;10210;52.284;9.892;2023-07-20T06:33:33;100338.00;;;22.10
20103;BMP180;10210;52.284;9.892;2023-07-20T06:36:00;100336.00;;;22.10
20103;BMP180;10210;52.284;9.892;2023-07-20T06:38:25;100339.00;;;22.10
20103;BMP180;10210;52.284;9.892;2023-07-20T06:40:52;100343.00;;;22.20
20103;BMP180;10210;52.284;9.892;2023-07-20T06:43:18;100343.00;;;22.20
20103;BMP180;10210;52.284;9.892;2023-07-20T06:45:43;100355.00;;;22.20
20103;BMP180;10210;52.284;9.892;2023-07-20T06:48:09;100340.00;;;22.30
20103;BMP180;10210;52.284;9.892;2023-07-20T06:50:35;100346.00;;;22.30
20103;BMP180;10210;52.284;9.892;2023-07-20T06:53:01;100344.00;;;22.30
20103;BMP180;10210;52.284;9.892;2023-07-20T06:55:30;100351.00;;;22.30
20103;BMP180;10210;52.284;9.892;2023-07-20T06:57:55;100353.00;;;22.30
20103;BMP180;10210;52.284;9.892;2023-07-20T07:00:21;100357.00;;;22.30
20103;BMP180;10210;52.284;9.892;2023-07-20T07:02:47;100356.00;;;22.30
20103;BMP180;10210;52.284;9.892;2023-07-20T07:05:12;100358.00;;;22.30
20103;BMP180;10210;52.284;9.892;2023-07-20T07:07:40;100370.00;;;22.30
20103;BMP180;10210;52.284;9.892;2023-07-20T07:10:06;100366.00;;;22.30
20103;BMP180;10210;52.284;9.892;2023-07-20T07:12:32;100368.00;;;22.30
20103;BMP180;10210;52.284;9.892;2023-07-20T07:14:58;100368.00;;;22.30
20103;BMP180;10210;52.284;9.892;2023-07-20T07:17:24;100378.00;;;22.30
20103;BMP180;10210;52.284;9.892;2023-07-20T07:19:51;100374.00;;;22.30
20103;BMP180;10210;52.284;9.892;2023-07-20T07:22:19;100364.00;;;22.50
20103;BMP180;10210;52.284;9.892;2023-07-20T07:24:44;100378.00;;;22.60
20103;BMP180;10210;52.284;9.892;2023-07-20T07:27:10;100379.00;;;22.70
20103;BMP180;10210;52.284;9.892;2023-07-20T07:29:36;100372.00;;;22.80
20103;BMP180;10210;52.284;9.892;2023-07-20T07:32:02;100373.00;;;22.80
20103;BMP180;10210;52.284;9.892;2023-07-20T07:34:28;100376.00;;;22.80
20103;BMP180;10210;52.284;9.892;2023-07-20T07:36:53;100377.00;;;22.90
20103;BMP180;10210;52.284;9.892;2023-07-20T07:39:19;100365.00;;;23.10
20103;BMP180;10210;52.284;9.892;2023-07-20T07:41:45;100382.00;;;23.50
20103;BMP180;10210;52.284;9.892;2023-07-20T07:44:11;100379.00;;;23.90
20103;BMP180;10210;52.284;9.892;2023-07-20T07:46:37;100377.00;;;24.00
20103;BMP180;10210;52.284;9.892;2023-07-20T07:49:02;100374.00;;;24.00
20103;BMP180;10210;52.284;9.892;2023-07-20T07:51:29;100377.00;;;24.30
20103;BMP180;10210;52.284;9.892;2023-07-20T07:53:55;100380.00;;;24.80
20103;BMP180;10210;52.284;9.892;2023-07-20T07:56:20;100380.00;;;25.30
20103;BMP180;10210;52.284;9.892;2023-07-20T07:58:50;100390.00;;;25.80
20103;BMP180;10210;52.284;9.892;2023-07-20T08:01:17;100394.00;;;26.40
20103;BMP180;10210;52.284;9.892;2023-07-20T08:03:45;100400.00;;;26.90
20103;BMP180;10210;52.284;9.892;2023-07-20T08:06:15;100394.00;;;27.50
20103;BMP180;10210;52.284;9.892;2023-07-20T08:08:41;100402.00;;;27.90
20103;BMP180;10210;52.284;9.892;2023-07-20T08:11:08;100414.00;;;27.70
20103;BMP180;10210;52.284;9.892;2023-07-20T08:13:34;100405.00;;;27.40
20103;BMP180;10210;52.284;9.892;2023-07-20T08:16:01;100399.00;;;27.40
20103;BMP180;10210;52.284;9.892;2023-07-20T08:18:30;100407.00;;;27.60
20103;BMP180;10210;52.284;9.892;2023-07-20T08:20:56;100398.00;;;27.90
20103;BMP180;10210;52.284;9.892;2023-07-20T08:23:22;100403.00;;;28.20
20103;BMP180;10210;52.284;9.892;2023-07-20T08:25:48;100403.00;;;28.00
20103;BMP180;10210;52.284;9.892;2023-07-20T08:28:16;100412.00;;;27.70
20103;BMP180;10210;52.284;9.892;2023-07-20T08:30:44;100406.00;;;27.30
20103;BMP180;10210;52.284;9.892;2023-07-20T08:33:13;100417.00;;;27.00
20103;BMP180;10210;52.284;9.892;2023-07-20T08:35:39;100423.00;;;27.00
20103;BMP180;10210;52.284;9.892;2023-07-20T08:38:06;100419.00;;;27.00
20103;BMP180;10210;52.284;9.892;2023-07-20T08:40:39;100424.00;;;27.20
20103;BMP180;10210;52.284;9.892;2023-07-20T08:43:05;100421.00;;;27.30
20103;BMP180;10210;52.284;9.892;2023-07-20T08:45:34;100423.00;;;27.50
20103;BMP180;10210;52.284;9.892;2023-07-20T08:48:01;100424.00;;;27.60
20103;BMP180;10210;52.284;9.892;2023-07-20T08:50:32;100427.00;;;27.60
20103;BMP180;10210;52.284;9.892;2023-07-20T08:52:59;100422.00;;;27.60
20103;BMP180;10210;52.284;9.892;2023-07-20T08:55:29;100425.00;;;27.60
20103;BMP180;10210;52.284;9.892;2023-07-20T08:57:58;100427.00;;;27.70
20103;BMP180;10210;52.284;9.892;2023-07-20T09:00:25;100418.00;;;27.90
20103;BMP180;10210;52.284;9.892;2023-07-20T09:02:53;100417.00;;;28.00
20103;BMP180;10210;52.284;9.892;2023-07-20T09:05:21;100421.00;;;28.20
20103;BMP180;10210;52.284;9.892;2023-07-20T09:07:48;100420.00;;;28.40
20103;BMP180;10210;52.284;9.892;2023-07-20T09:10:13;100423.00;;;28.60
20103;BMP180;10210;52.284;9.892;2023-07-20T09:12:43;100421.00;;;28.70
20103;BMP180;10210;52.284;9.892;2023-07-20T09:15:11;100415.00;;;28.70
20103;BMP180;10210;52.284;9.892;2023-07-20T09:17:37;100420.00;;;28.80
20103;BMP180;10210;52.284;9.892;2023-07-20T09:20:08;100421.00;;;28.70
20103;BMP180;10210;52.284;9.892;2023-07-20T09:22:38;100421.00;;;28.70
20103;BMP180;10210;52.284;9.892;2023-07-20T09:25:12;100411.00;;;28.70
20103;BMP180;10210;52.284;9.892;2023-07-20T09:27:44;100424.00;;;28.70
20103;BMP180;10210;52.284;9.892;2023-07-20T09:30:11;100428.00;;;28.60
20103;BMP180;10210;52.284;9.892;2023-07-20T09:32:41;100426.00;;;28.50
20103;BMP180;10210;52.284;9.892;2023-07-20T09:35:22;100417.00;;;28.40
20103;BMP180;10210;52.284;9.892;2023-07-20T09:38:01;100433.00;;;28.40
20103;BMP180;10210;52.284;9.892;2023-07-20T09:40:28;100428.00;;;28.40
20103;BMP180;10210;52.284;9.892;2023-07-20T09:42:55;100427.00;;;28.40
20103;BMP180;10210;52.284;9.892;2023-07-20T09:45:33;100429.00;;;28.40
20103;BMP180;10210;52.284;9.892;2023-07-20T09:48:09;100426.00;;;28.40
20103;BMP180;10210;52.284;9.892;2023-07-20T09:50:52;100429.00;;;28.50
20103;BMP180;10210;52.284;9.892;2023-07-20T09:53:19;100422.00;;;28.60
20103;BMP180;10210;52.284;9.892;2023-07-20T09:55:47;100426.00;;;28.70
20103;BMP180;10210;52.284;9.892;2023-07-20T09:58:14;100421.00;;;28.80
20103;BMP180;10210;52.284;9.892;2023-07-20T10:00:41;100426.00;;;28.90
20103;BMP180;10210;52.284;9.892;2023-07-20T10:03:18;100427.00;;;28.80
20103;BMP180;10210;52.284;9.892;2023-07-20T10:05:51;100428.00;;;28.80
20103;BMP180;10210;52.284;9.892;2023-07-20T10:08:20;100422.00;;;28.70
20103;BMP180;10210;52.284;9.892;2023-07-20T10:10:48;100433.00;;;28.70
20103;BMP180;10210;52.284;9.892;2023-07-20T10:13:21;100431.00;;;28.70
20103;BMP180;10210;52.284;9.892;2023-07-20T10:15:54;100430.00;;;28.70
20103;BMP180;10210;52.284;9.892;2023-07-20T10:18:40;100438.00;;;28.60
20103;BMP180;10210;52.284;9.892;2023-07-20T10:21:07;100429.00;;;28.70
20103;BMP180;10210;52.284;9.892;2023-07-20T10:23:35;100432.00;;;28.70
20103;BMP180;10210;52.284;9.892;2023-07-20T10:26:01;100427.00;;;28.80
20103;BMP180;10210;52.284;9.892;2023-07-20T10:28:28;100426.00;;;28.80
20103;BMP180;10210;52.284;9.892;2023-07-20T10:30:54;100428.00;;;28.80
20103;BMP180;10210;52.284;9.892;2023-07-20T10:33:20;100424.00;;;28.90
20103;BMP180;10210;52.284;9.892;2023-07-20T10:36:03;100418.00;;;28.90
20103;BMP180;10210;52.284;9.892;2023-07-20T10:38:53;100424.00;;;28.90
20103;BMP180;10210;52.284;9.892;2023-07-20T10:41:35;100417.00;;;28.90
20103;BMP180;10210;52.284;9.892;2023-07-20T10:44:03;100423.00;;;28.90
20103;BMP180;10210;52.284;9.892;2023-07-20T10:49:10;100412.00;;;29.00
20103;BMP180;10210;52.284;9.892;2023-07-20T10:51:48;100416.00;;;29.00
20103;BMP180;10210;52.284;9.892;2023-07-20T10:56:45;100417.00;;;29.00
20103;BMP180;10210;52.284;9.892;2023-07-20T11:01:57;100418.00;;;29.00
20103;BMP180;10210;52.284;9.892;2023-07-20T11:04:42;100413.00;;;28.90
20103;BMP180;10210;52.284;9.892;2023-07-20T11:07:08;100404.00;;;29.00
20103;BMP180;10210;52.284;9.892;2023-07-20T11:09:38;100414.00;;;28.90
20103;BMP180;10210;52.284;9.892;2023-07-20T11:12:15;100413.00;;;28.90
20103;BMP180;10210;52.284;9.892;2023-07-20T11:14:43;100407.00;;;28.80
20103;BMP180;10210;52.284;9.892;2023-07-20T11:17:15;100414.00;;;28.80
20103;BMP180;10210;52.284;9.892;2023-07-20T11:19:48;100419.00;;;28.80
20103;BMP180;10210;52.284;9.892;2023-07-20T11:22:17;100419.00;;;28.70
20103;BMP180;10210;52.284;9.892;2023-07-20T11:24:43;100416.00;;;28.70
20103;BMP180;10210;52.284;9.892;2023-07-20T11:27:09;100428.00;;;28.60
20103;BMP180;10210;52.284;9.892;2023-07-20T11:29:37;100430.00;;;28.50
20103;BMP180;10210;52.284;9.892;2023-07-20T11:32:04;100438.00;;;28.50
20103;BMP180;10210;52.284;9.892;2023-07-20T11:34:32;100429.00;;;28.40
20103;BMP180;10210;52.284;9.892;2023-07-20T11:36:58;100428.00;;;28.40
20103;BMP180;10210;52.284;9.892;2023-07-20T11:39:25;100425.00;;;28.40
20103;BMP180;10210;52.284;9.892;2023-07-20T11:41:53;100431.00;;;28.30
20103;BMP180;10210;52.284;9.892;2023-07-20T11:44:22;100426.00;;;28.30
20103;BMP180;10210;52.284;9.892;2023-07-20T11:47:10;100435.00;;;28.20
20103;BMP180;10210;52.284;9.892;2023-07-20T11:49:38;100420.00;;;28.30
20103;BMP180;10210;52.284;9.892;2023-07-20T11:52:11;100421.00;;;28.30
20103;BMP180;10210;52.284;9.892;2023-07-20T11:54:39;100416.00;;;28.40
20103;BMP180;10210;52.284;9.892;2023-07-20T11:57:05;100418.00;;;28.40
20103;BMP180;10210;52.284;9.892;2023-07-20T11:59:32;100413.00;;;28.50
20103;BMP180;10210;52.284;9.892;2023-07-20T12:02:02;100414.00;;;28.40
20103;BMP180;10210;52.284;9.892;2023-07-20T12:04:31;100416.00;;;28.40
20103;BMP180;10210;52.284;9.892;2023-07-20T12:06:57;100413.00;;;28.40
20103;BMP180;10210;52.284;9.892;2023-07-20T12:09:22;100413.00;;;28.50
20103;BMP180;10210;52.284;9.892;2023-07-20T12:11:50;100405.00;;;28.50
20103;BMP180;10210;52.284;9.892;2023-07-20T12:14:16;100406.00;;;28.60
20103;BMP180;10210;52.284;9.892;2023-07-20T12:16:43;100405.00;;;28.70
20103;BMP180;10210;52.284;9.892;2023-07-20T12:19:11;100408.00;;;28.70
20103;BMP180;10210;52.284;9.892;2023-07-20T12:21:40;100406.00;;;28.70
20103;BMP180;10210;52.284;9.892;2023-07-20T12:24:08;100403.00;;;28.80
20103;BMP180;10210;52.284;9.892;2023-07-20T12:26:37;100414.00;;;28.80
20103;BMP180;10210;52.284;9.892;2023-07-20T12:29:03;100412.00;;;28.90
20103;BMP180;10210;52.284;9.892;2023-07-20T12:31:33;100402.00;;;28.90
20103;BMP180;10210;52.284;9.892;2023-07-20T12:33:59;100406.00;;;29.00
20103;BMP180;10210;52.284;9.892;2023-07-20T12:36:25;100406.00;;;29.00
20103;BMP180;10210;52.284;9.892;2023-07-20T12:38:51;100403.00;;;29.10
20103;BMP180;10210;52.284;9.892;2023-07-20T12:41:17;100403.00;;;29.10
20103;BMP180;10210;52.284;9.892;2023-07-20T12:43:44;100402.00;;;29.10
20103;BMP180;10210;52.284;9.892;2023-07-20T12:46:12;100403.00;;;29.10
20103;BMP180;10210;52.284;9.892;2023-07-20T12:48:39;100396.00;;;29.10
20103;BMP180;10210;52.284;9.892;2023-07-20T12:51:08;100393.00;;;29.10
20103;BMP180;10210;52.284;9.892;2023-07-20T12:53:34;100393.00;;;29.20
20103;BMP180;10210;52.284;9.892;2023-07-20T12:56:01;100392.00;;;29.30
20103;BMP180;10210;52.284;9.892;2023-07-20T12:58:27;100384.00;;;29.30
20103;BMP180;10210;52.284;9.892;2023-07-20T13:00:53;100386.00;;;29.40
20103;BMP180;10210;52.284;9.892;2023-07-20T13:03:19;100381.00;;;29.40
20103;BMP180;10210;52.284;9.892;2023-07-20T13:05:46;100386.00;;;29.50
20103;BMP180;10210;52.284;9.892;2023-07-20T13:08:13;100390.00;;;29.50
20103;BMP180;10210;52.284;9.892;2023-07-20T13:10:38;100390.00;;;29.60
20103;BMP180;10210;52.284;9.892;2023-07-20T13:13:05;100392.00;;;29.60
20103;BMP180;10210;52.284;9.892;2023-07-20T13:15:40;100380.00;;;29.60
20103;BMP180;10210;52.284;9.892;2023-07-20T13:18:06;100383.00;;;29.60
20103;BMP180;10210;52.284;9.892;2023-07-20T13:20:32;100390.00;;;29.60
20103;BMP180;10210;52.284;9.892;2023-07-20T13:22:58;100384.00;;;29.60
20103;BMP180;10210;52.284;9.892;2023-07-20T13:25:24;100392.00;;;29.60
20103;BMP180;10210;52.284;9.892;2023-07-20T13:27:50;100390.00;;;29.60
20103;BMP180;10210;52.284;9.892;2023-07-20T13:30:16;100390.00;;;29.60
20103;BMP180;10210;52.284;9.892;2023-07-20T13:32:45;100391.00;;;29.50
20103;BMP180;10210;52.284;9.892;2023-07-20T13:35:12;100396.00;;;29.50
20103;BMP180;10210;52.284;9.892;2023-07-20T13:37:38;100398.00;;;29.50
20103;BMP180;10210;52.284;9.892;2023-07-20T13:40:05;100394.00;;;29.50
20103;BMP180;10210;52.284;9.892;2023-07-20T13:42:34;100398.00;;;29.40
20103;BMP180;10210;52.284;9.892;2023-07-20T13:45:00;100396.00;;;29.40
20103;BMP180;10210;52.284;9.892;2023-07-20T13:47:27;100388.00;;;29.40
20103;BMP180;10210;52.284;9.892;2023-07-20T13:49:53;100396.00;;;29.50
20103;BMP180;10210;52.284;9.892;2023-07-20T13:52:19;100395.00;;;29.50
20103;BMP180;10210;52.284;9.892;2023-07-20T13:54:44;100405.00;;;29.60
20103;BMP180;10210;52.284;9.892;2023-07-20T13:57:10;100400.00;;;29.60
20103;BMP180;10210;52.284;9.892;2023-07-20T13:59:36;100399.00;;;29.60
20103;BMP180;10210;52.284;9.892;2023-07-20T14:02:01;100407.00;;;29.50
20103;BMP180;10210;52.284;9.892;2023-07-20T14:04:27;100393.00;;;29.50
20103;BMP180;10210;52.284;9.892;2023-07-20T14:06:54;100394.00;;;29.40
20103;BMP180;10210;52.284;9.892;2023-07-20T14:09:19;100395.00;;;29.40
20103;BMP180;10210;52.284;9.892;2023-07-20T14:11:45;100399.00;;;29.30
20103;BMP180;10210;52.284;9.892;2023-07-20T14:14:11;100395.00;;;29.30